KARA/ARA METAR and TAF weather

Enter ICAO airport designator
Station Type Date Time Source
KARA METAR 2018/01/17 05:53 UTC NOAA

KARA 170553Z AUTO 36014KT 10SM CLR M04/M09 A3063 RMK AO2 SLP372 60000 I6001 T10391089 11039 21044 400781044 51007


Station Type Date Time Source
KARA Decoded METAR 2018/01/17 05:53 UTC NOAA

NEW IBERIA ACADIANA REGIONAL, LA, United States (KARA) 30-02N 091-53W 18M
Jan 17, 2018 - 12:53 AM EST / 2018.01.17 0553 UTC
Wind: from the N (360 degrees) at 16 MPH (14 KT):0
Visibility: 10 mile(s):0
Sky conditions: clear
Temperature: 25.0 F (-3.9 C)
Windchill: 12 F (-11 C):1
Dew Point: 16.0 F (-8.9 C)
Relative Humidity: 68%
Pressure (altimeter): 30.63 in. Hg (1037 hPa)
Pressure tendency: 0.02 inches (0.7 hPa) higher than three hours ago
ob: KARA 170553Z AUTO 36014KT 10SM CLR M04/M09 A3063 RMK AO2 SLP372 60000 I6001 T10391089 11039 21044 400781044 51007
cycle: 6

Station Type Date Time Source
KARA TAF 2018/01/17 06:24 UTC NOAA

TAF KARA 170521Z 1706/1806 36014KT P6SM SKC


Example: see airport list